createdAt,value
2022-10-31T00:01:29.249Z,100566.88
2022-10-31T00:03:57.131Z,100562.97
2022-10-31T00:06:24.933Z,100561.50
2022-10-31T00:08:55.142Z,100562.97
2022-10-31T00:11:22.944Z,100556.03
2022-10-31T00:13:50.556Z,100558.94
2022-10-31T00:16:20.312Z,100563.84
2022-10-31T00:18:52.122Z,100558.19
2022-10-31T00:21:19.867Z,100557.91
2022-10-31T00:23:47.949Z,100560.13
2022-10-31T00:26:16.133Z,100562.63
2022-10-31T00:28:43.895Z,100566.34
2022-10-31T00:31:13.337Z,100560.97
2022-10-31T00:33:42.282Z,100564.50
2022-10-31T00:36:13.813Z,100570.06
2022-10-31T00:38:41.569Z,100573.56
2022-10-31T00:41:09.289Z,100575.88
2022-10-31T00:43:36.956Z,100580.59
2022-10-31T00:46:04.595Z,100572.28
2022-10-31T00:48:32.194Z,100575.44
2022-10-31T00:50:59.948Z,100577.72
2022-10-31T00:53:28.828Z,100578.94
2022-10-31T00:55:56.590Z,100577.53
2022-10-31T00:58:24.199Z,100582.56
2022-10-31T01:00:55.934Z,100582.91
2022-10-31T01:03:24.654Z,100581.53
2022-10-31T01:06:03.026Z,100576.97
2022-10-31T01:08:32.036Z,100586.94
2022-10-31T01:11:01.395Z,100578.84
2022-10-31T01:13:29.174Z,100575.69
2022-10-31T01:15:57.611Z,100578.00
2022-10-31T01:18:25.714Z,100578.94
2022-10-31T01:21:01.500Z,100575.88
2022-10-31T01:23:29.714Z,100575.31
2022-10-31T01:26:11.057Z,100578.25
2022-10-31T01:28:40.562Z,100581.34
2022-10-31T01:31:09.994Z,100581.19
2022-10-31T01:33:38.859Z,100581.34
2022-10-31T01:36:14.366Z,100586.66
2022-10-31T01:38:43.175Z,100581.84
2022-10-31T01:41:16.822Z,100580.28
2022-10-31T01:43:46.618Z,100573.63
2022-10-31T01:46:15.461Z,100579.38
2022-10-31T01:48:43.736Z,100570.84
2022-10-31T01:51:15.502Z,100577.63
2022-10-31T01:53:45.611Z,100566.91
2022-10-31T01:56:15.584Z,100565.63
2022-10-31T01:58:44.232Z,100561.06
2022-10-31T02:01:12.523Z,100563.75
2022-10-31T02:03:40.451Z,100561.91
2022-10-31T02:06:15.603Z,100559.22
2022-10-31T02:08:44.421Z,100565.41
2022-10-31T02:11:14.180Z,100566.16
2022-10-31T02:13:42.011Z,100563.03
2022-10-31T02:16:11.629Z,100561.56
2022-10-31T02:18:39.286Z,100566.09
2022-10-31T02:21:17.186Z,100564.78
2022-10-31T02:24:23.581Z,100557.84
2022-10-31T02:27:10.059Z,100561.81
2022-10-31T02:30:09.233Z,100561.75
2022-10-31T02:32:48.874Z,100568.88
2022-10-31T02:35:30.150Z,100565.31
2022-10-31T02:38:03.323Z,100561.56
2022-10-31T02:40:37.635Z,100563.84
2022-10-31T02:45:50.677Z,100565.16
2022-10-31T02:48:22.470Z,100560.63
2022-10-31T02:50:57.045Z,100563.94
2022-10-31T02:53:24.738Z,100561.16
2022-10-31T02:56:00.168Z,100558.69
2022-10-31T02:58:32.499Z,100561.25
2022-10-31T03:01:25.411Z,100569.88
2022-10-31T03:04:14.433Z,100571.34
2022-10-31T03:06:48.455Z,100563.50
2022-10-31T03:09:25.363Z,100558.31
2022-10-31T03:11:59.848Z,100558.66
2022-10-31T03:14:38.868Z,100562.56
2022-10-31T03:17:09.533Z,100559.34
2022-10-31T03:19:42.225Z,100560.91
2022-10-31T03:22:18.756Z,100552.22
2022-10-31T03:24:49.695Z,100553.50
2022-10-31T03:27:21.084Z,100562.50
2022-10-31T03:29:51.056Z,100562.00
2022-10-31T03:32:22.715Z,100558.75
2022-10-31T03:34:54.001Z,100548.97
2022-10-31T03:37:24.154Z,100555.81
2022-10-31T03:39:52.232Z,100549.69
2022-10-31T03:42:24.847Z,100550.06
2022-10-31T03:44:57.896Z,100553.59
2022-10-31T03:47:25.766Z,100551.28
2022-10-31T03:49:55.538Z,100548.69
2022-10-31T03:52:30.417Z,100546.66
2022-10-31T03:55:01.876Z,100544.53
2022-10-31T03:57:35.765Z,100549.16
2022-10-31T04:00:10.563Z,100553.31
2022-10-31T04:02:42.698Z,100542.59
2022-10-31T04:05:13.468Z,100550.75
2022-10-31T04:07:45.740Z,100551.66
2022-10-31T04:10:16.218Z,100545.00
2022-10-31T04:12:46.383Z,100552.94
2022-10-31T04:15:15.220Z,100542.88
2022-10-31T04:17:46.028Z,100535.66
2022-10-31T04:20:18.451Z,100528.53
2022-10-31T04:22:46.218Z,100538.25
2022-10-31T04:25:13.830Z,100542.28
2022-10-31T04:27:41.477Z,100535.84
2022-10-31T04:30:10.272Z,100543.13
2022-10-31T04:32:37.986Z,100540.81
2022-10-31T04:35:06.667Z,100551.81
2022-10-31T04:37:35.564Z,100557.19
2022-10-31T04:40:03.186Z,100553.66
2022-10-31T04:42:31.476Z,100553.09
2022-10-31T04:44:59.057Z,100552.81
2022-10-31T04:47:26.708Z,100553.66
2022-10-31T04:49:54.347Z,100560.41
2022-10-31T04:52:21.868Z,100561.63
2022-10-31T04:54:50.823Z,100569.31
2022-10-31T04:57:18.457Z,100568.00
2022-10-31T04:59:46.019Z,100579.09
2022-10-31T05:02:13.682Z,100563.38
2022-10-31T05:04:41.341Z,100558.66
2022-10-31T05:07:08.976Z,100562.66
2022-10-31T05:09:38.019Z,100568.09
2022-10-31T05:12:07.358Z,100564.31
2022-10-31T05:14:34.964Z,100559.25
2022-10-31T05:17:02.523Z,100541.84
2022-10-31T05:19:30.094Z,100538.06
2022-10-31T05:21:57.859Z,100542.41
2022-10-31T05:24:25.458Z,100543.03
2022-10-31T05:26:53.062Z,100543.50
2022-10-31T05:29:21.940Z,100538.13
2022-10-31T05:31:49.603Z,100530.28
2022-10-31T05:34:19.281Z,100538.78
2022-10-31T05:36:46.916Z,100533.22
2022-10-31T05:39:14.474Z,100537.31
2022-10-31T05:41:42.299Z,100538.50
2022-10-31T05:44:10.111Z,100540.81
2022-10-31T05:46:38.966Z,100542.09
2022-10-31T05:49:06.547Z,100547.13
2022-10-31T05:51:34.119Z,100551.47
2022-10-31T05:54:01.685Z,100553.97
2022-10-31T05:56:29.341Z,100547.13
2022-10-31T05:58:57.100Z,100541.75
2022-10-31T06:01:24.978Z,100544.72
2022-10-31T06:03:53.882Z,100538.69
2022-10-31T06:06:21.465Z,100541.19
2022-10-31T06:08:48.971Z,100543.50
2022-10-31T06:11:16.655Z,100535.56
2022-10-31T06:13:44.174Z,100540.47
2022-10-31T06:16:11.873Z,100541.66
2022-10-31T06:18:39.416Z,100531.28
2022-10-31T06:21:08.374Z,100537.31
2022-10-31T06:23:36.023Z,100523.06
2022-10-31T06:26:03.611Z,100536.72
2022-10-31T06:28:31.424Z,100532.47
2022-10-31T06:30:58.955Z,100536.81
2022-10-31T06:33:26.508Z,100535.59
2022-10-31T06:35:54.105Z,100532.38
2022-10-31T06:38:22.967Z,100533.22
2022-10-31T06:40:53.382Z,100531.13
2022-10-31T06:43:21.027Z,100540.44
2022-10-31T06:45:48.877Z,100542.09
2022-10-31T06:48:18.059Z,100551.47
2022-10-31T06:50:45.902Z,100548.34
2022-10-31T06:53:14.172Z,100547.69
2022-10-31T06:55:43.891Z,100549.53
2022-10-31T06:58:12.710Z,100551.13
2022-10-31T07:00:40.456Z,100557.25
2022-10-31T07:03:11.057Z,100559.06
2022-10-31T07:05:38.634Z,100553.16
2022-10-31T07:08:09.194Z,100559.78
2022-10-31T07:10:40.411Z,100561.97
2022-10-31T07:13:13.859Z,100562.63
2022-10-31T07:15:43.930Z,100558.47
2022-10-31T07:18:13.982Z,100554.09
2022-10-31T07:20:41.631Z,100553.56
2022-10-31T07:23:10.629Z,100557.56
2022-10-31T07:25:38.264Z,100562.72
2022-10-31T07:28:06.198Z,100556.69
2022-10-31T07:30:35.246Z,100564.78
2022-10-31T07:33:02.841Z,100553.13
2022-10-31T07:35:31.187Z,100552.63
2022-10-31T07:37:59.756Z,100558.94
2022-10-31T07:40:27.700Z,100566.31
2022-10-31T07:42:55.558Z,100560.63
2022-10-31T07:45:23.366Z,100555.00
2022-10-31T07:47:54.070Z,100558.03
2022-10-31T07:50:23.784Z,100554.19
2022-10-31T07:53:00.497Z,100560.19
2022-10-31T07:55:28.224Z,100558.34
2022-10-31T07:58:00.775Z,100562.50
2022-10-31T08:00:29.273Z,100567.72
2022-10-31T08:03:03.520Z,100567.31
2022-10-31T08:05:33.432Z,100561.38
2022-10-31T08:08:01.710Z,100562.50
2022-10-31T08:10:29.754Z,100562.38
2022-10-31T08:12:58.894Z,100563.06
2022-10-31T08:15:27.010Z,100558.97
2022-10-31T08:17:54.908Z,100544.44
2022-10-31T08:20:24.503Z,100554.00
2022-10-31T08:22:58.746Z,100549.81
2022-10-31T08:25:29.878Z,100548.38
2022-10-31T08:28:00.901Z,100552.34
2022-10-31T08:30:32.014Z,100549.41
2022-10-31T08:33:05.120Z,100546.09
2022-10-31T08:35:35.121Z,100543.94
2022-10-31T08:38:03.992Z,100539.13
2022-10-31T08:40:33.808Z,100536.69
2022-10-31T08:43:03.040Z,100539.41
2022-10-31T08:45:31.585Z,100537.72
2022-10-31T08:48:00.825Z,100535.91
2022-10-31T08:50:30.136Z,100529.66
2022-10-31T08:53:05.612Z,100534.03
2022-10-31T08:55:35.327Z,100528.44
2022-10-31T08:58:05.133Z,100535.19
2022-10-31T09:00:32.923Z,100530.63
2022-10-31T09:03:02.093Z,100531.22
2022-10-31T09:05:30.184Z,100529.41
2022-10-31T09:07:59.428Z,100528.38
2022-10-31T09:10:30.193Z,100530.47
2022-10-31T09:12:58.595Z,100525.09
2022-10-31T09:15:26.478Z,100531.53
2022-10-31T09:17:54.137Z,100529.22
2022-10-31T09:20:22.088Z,100528.59
2022-10-31T09:22:49.711Z,100517.44
2022-10-31T09:25:17.554Z,100516.19
2022-10-31T09:27:46.442Z,100516.44
2022-10-31T09:30:14.591Z,100507.91
2022-10-31T09:32:42.148Z,100511.84
2022-10-31T09:35:10.145Z,100512.09
2022-10-31T09:37:37.704Z,100512.28
2022-10-31T09:40:06.004Z,100501.72
2022-10-31T09:42:57.812Z,100501.25
2022-10-31T09:45:31.976Z,100499.00
2022-10-31T09:48:13.988Z,100504.16
2022-10-31T09:50:48.371Z,100505.34
2022-10-31T09:53:26.210Z,100495.69
2022-10-31T09:55:55.555Z,100499.56
2022-10-31T09:58:27.837Z,100498.78
2022-10-31T10:00:59.427Z,100495.19
2022-10-31T10:03:36.097Z,100499.75
2022-10-31T10:06:16.444Z,100495.06
2022-10-31T10:08:44.050Z,100494.88
2022-10-31T10:11:28.731Z,100488.34
2022-10-31T10:14:18.864Z,100487.16
2022-10-31T10:17:07.548Z,100484.69
2022-10-31T10:19:52.036Z,100488.34
2022-10-31T10:22:30.129Z,100485.41
2022-10-31T10:25:16.417Z,100481.41
2022-10-31T10:27:52.388Z,100478.28
2022-10-31T10:30:23.715Z,100472.59
2022-10-31T10:32:56.026Z,100477.19
2022-10-31T10:35:29.924Z,100470.72
2022-10-31T10:38:04.243Z,100477.66
2022-10-31T10:40:32.527Z,100464.16
2022-10-31T10:43:35.863Z,100454.16
2022-10-31T10:46:36.830Z,100458.19
2022-10-31T10:49:14.327Z,100459.03
2022-10-31T10:55:04.289Z,100452.44
2022-10-31T10:57:43.879Z,100450.19
2022-10-31T11:00:21.372Z,100446.75
2022-10-31T11:02:50.440Z,100439.34
2022-10-31T11:05:25.690Z,100427.16
2022-10-31T11:07:53.620Z,100425.16
2022-10-31T11:10:22.746Z,100419.94
2022-10-31T11:13:04.257Z,100431.88
2022-10-31T11:15:36.995Z,100415.63
2022-10-31T11:18:06.598Z,100417.31
2022-10-31T11:20:38.151Z,100407.09
2022-10-31T11:23:18.812Z,100407.34
2022-10-31T11:25:56.076Z,100410.50
2022-10-31T11:28:24.316Z,100401.47
2022-10-31T11:30:55.326Z,100396.81
2022-10-31T11:33:31.689Z,100391.66
2022-10-31T11:35:59.757Z,100394.06
2022-10-31T11:38:35.485Z,100388.28
2022-10-31T11:41:13.020Z,100380.84
2022-10-31T11:43:48.728Z,100382.25
2022-10-31T11:46:22.489Z,100387.13
2022-10-31T11:48:53.908Z,100380.38
2022-10-31T11:51:29.791Z,100379.69
2022-10-31T11:54:02.765Z,100368.47
2022-10-31T11:56:41.225Z,100357.16
2022-10-31T11:59:20.098Z,100349.00
2022-10-31T12:01:52.290Z,100344.88
2022-10-31T12:04:29.112Z,100330.56
2022-10-31T12:06:56.879Z,100327.75
2022-10-31T12:09:27.416Z,100332.34
2022-10-31T12:12:22.242Z,100331.16
2022-10-31T12:14:59.270Z,100327.09
2022-10-31T12:17:35.494Z,100323.59
2022-10-31T12:20:18.302Z,100326.97
2022-10-31T12:22:54.390Z,100322.31
2022-10-31T12:25:34.523Z,100312.06
2022-10-31T12:28:13.903Z,100315.38
2022-10-31T12:30:55.379Z,100306.34
2022-10-31T12:33:36.416Z,100300.31
2022-10-31T12:36:22.804Z,100302.94
2022-10-31T12:39:08.370Z,100309.56
2022-10-31T12:41:48.662Z,100304.66
2022-10-31T12:44:39.792Z,100302.72
2022-10-31T12:47:26.555Z,100299.41
2022-10-31T12:50:04.405Z,100296.13
2022-10-31T12:52:47.147Z,100310.59
2022-10-31T12:55:39.532Z,100299.31
2022-10-31T12:58:13.768Z,100287.53
2022-10-31T13:00:46.356Z,100273.19
2022-10-31T13:03:24.003Z,100261.00
2022-10-31T13:05:56.520Z,100256.94
2022-10-31T13:08:30.715Z,100232.16
2022-10-31T13:11:07.590Z,100234.66
2022-10-31T13:13:43.004Z,100230.47
2022-10-31T13:16:18.001Z,100225.06
2022-10-31T13:18:49.810Z,100224.00
2022-10-31T13:21:22.952Z,100208.13
2022-10-31T13:23:53.290Z,100213.59
2022-10-31T13:26:33.765Z,100203.66
2022-10-31T13:29:11.105Z,100202.59
2022-10-31T13:31:44.257Z,100212.63
2022-10-31T13:34:27.364Z,100200.94
2022-10-31T13:37:04.792Z,100195.53
2022-10-31T13:42:32.028Z,100191.47
2022-10-31T13:45:14.025Z,100193.06
2022-10-31T13:47:43.720Z,100193.22
2022-10-31T13:50:23.870Z,100186.34
2022-10-31T13:52:51.666Z,100178.19
2022-10-31T13:55:42.287Z,100178.56
2022-10-31T13:58:28.974Z,100177.94
2022-10-31T14:01:02.883Z,100175.00
2022-10-31T14:04:02.122Z,100166.66
2022-10-31T14:06:20.566Z,100170.09
2022-10-31T14:08:51.321Z,100163.50
2022-10-31T14:11:31.610Z,100159.53
2022-10-31T14:14:04.381Z,100161.34
2022-10-31T14:16:34.445Z,100157.50
2022-10-31T14:19:08.996Z,100156.50
2022-10-31T14:21:42.509Z,100154.03
2022-10-31T14:24:17.611Z,100150.88
2022-10-31T14:26:55.974Z,100158.00
2022-10-31T14:29:29.950Z,100156.28
2022-10-31T14:32:01.727Z,100141.31
2022-10-31T14:34:32.144Z,100134.63
2022-10-31T14:37:32.770Z,100138.06
2022-10-31T14:40:10.438Z,100132.16
2022-10-31T14:42:53.506Z,100123.97
2022-10-31T14:45:33.277Z,100123.22
2022-10-31T14:48:12.297Z,100135.97
2022-10-31T14:50:46.628Z,100160.47
2022-10-31T14:53:22.373Z,100185.41
2022-10-31T14:55:53.391Z,100161.63
2022-10-31T14:58:24.291Z,100148.59
2022-10-31T15:00:57.827Z,100144.41
2022-10-31T15:03:32.353Z,100139.59
2022-10-31T15:06:07.050Z,100148.34
2022-10-31T15:08:39.758Z,100151.63
2022-10-31T15:11:16.518Z,100156.16
2022-10-31T15:13:48.501Z,100147.94
2022-10-31T15:16:21.213Z,100147.16
2022-10-31T15:18:55.702Z,100144.66
2022-10-31T15:21:25.742Z,100145.13
2022-10-31T15:23:56.052Z,100144.75
2022-10-31T15:26:25.830Z,100123.47
2022-10-31T15:29:02.317Z,100120.81
2022-10-31T15:31:32.355Z,100117.09
2022-10-31T15:34:04.407Z,100122.31
2022-10-31T15:36:37.457Z,100128.44
2022-10-31T15:39:06.400Z,100132.91
2022-10-31T15:41:40.096Z,100129.44
2022-10-31T15:44:18.617Z,100127.19
2022-10-31T15:46:57.065Z,100130.00
2022-10-31T15:49:36.018Z,100120.56
2022-10-31T15:52:12.461Z,100122.22
2022-10-31T15:54:48.894Z,100118.00
2022-10-31T15:57:18.289Z,100109.28
2022-10-31T15:59:48.662Z,100120.34
2022-10-31T16:02:25.261Z,100122.47
2022-10-31T16:04:55.821Z,100118.34
2022-10-31T16:07:24.461Z,100111.41
2022-10-31T16:09:55.053Z,100104.34
2022-10-31T16:12:25.416Z,100113.16
2022-10-31T16:14:55.167Z,100110.91
2022-10-31T16:17:28.454Z,100107.25
2022-10-31T16:19:59.054Z,100101.75
2022-10-31T16:22:30.041Z,100086.19
2022-10-31T16:25:03.319Z,100081.50
2022-10-31T16:27:33.696Z,100070.28
2022-10-31T16:30:05.222Z,100049.22
2022-10-31T16:32:36.557Z,100032.59
2022-10-31T16:35:20.981Z,100026.72
2022-10-31T16:37:48.567Z,100024.75
2022-10-31T16:40:16.925Z,100005.72
2022-10-31T16:42:46.310Z,99984.16
2022-10-31T16:45:19.323Z,99974.66
2022-10-31T16:47:49.275Z,99966.06
2022-10-31T16:50:19.226Z,99972.19
2022-10-31T16:53:15.417Z,99964.66
2022-10-31T16:55:36.159Z,99947.47
2022-10-31T16:58:04.197Z,99951.69
2022-10-31T17:00:32.123Z,99956.06
2022-10-31T17:03:02.353Z,99939.72
2022-10-31T17:05:31.065Z,99969.59
2022-10-31T17:08:00.602Z,100005.56
2022-10-31T17:10:28.919Z,100010.72
2022-10-31T17:12:59.992Z,100000.03
2022-10-31T17:15:28.801Z,100024.69
2022-10-31T17:17:56.460Z,100014.19
2022-10-31T17:20:28.124Z,100035.84
2022-10-31T17:22:56.607Z,100036.53
2022-10-31T17:25:27.767Z,100034.97
2022-10-31T17:27:56.013Z,100029.44
2022-10-31T17:30:24.194Z,100028.28
2022-10-31T17:32:52.989Z,100031.44
2022-10-31T17:35:20.900Z,100025.22
2022-10-31T17:37:50.263Z,100040.63
2022-10-31T17:40:20.133Z,100069.97
2022-10-31T17:42:52.091Z,100076.03
2022-10-31T17:45:20.392Z,100056.13
2022-10-31T17:47:49.318Z,100038.97
2022-10-31T17:50:17.406Z,100033.78
2022-10-31T17:52:45.462Z,100039.63
2022-10-31T17:55:14.619Z,100030.22
2022-10-31T17:57:43.940Z,100005.50
2022-10-31T18:00:14.775Z,99999.03
2022-10-31T18:02:42.642Z,100023.13
2022-10-31T18:05:11.068Z,100040.50
2022-10-31T18:07:38.945Z,100037.28
2022-10-31T18:10:08.104Z,100011.16
2022-10-31T18:12:38.519Z,100010.72
2022-10-31T18:15:06.998Z,99992.50
2022-10-31T18:17:36.908Z,99988.53
2022-10-31T18:20:08.045Z,100008.09
2022-10-31T18:22:35.789Z,99997.22
2022-10-31T18:25:04.037Z,99986.06
2022-10-31T18:27:31.763Z,99998.19
2022-10-31T18:30:00.660Z,99994.34
2022-10-31T18:32:28.254Z,100006.66
2022-10-31T18:34:56.016Z,100001.56
2022-10-31T18:37:23.657Z,100003.00
2022-10-31T18:39:51.267Z,99996.09
2022-10-31T18:42:18.935Z,99991.97
2022-10-31T18:44:46.575Z,99990.09
2022-10-31T18:47:15.872Z,99991.81
2022-10-31T18:49:43.683Z,99991.44
2022-10-31T18:52:11.235Z,99984.22
2022-10-31T18:54:38.816Z,99977.03
2022-10-31T18:57:06.415Z,99972.06
2022-10-31T18:59:34.013Z,99962.56
2022-10-31T19:02:02.081Z,99973.81
2022-10-31T19:04:31.129Z,99980.84
2022-10-31T19:06:58.641Z,99984.22
2022-10-31T19:09:26.275Z,99995.03
2022-10-31T19:11:53.796Z,99999.44
2022-10-31T19:14:21.523Z,100000.94
2022-10-31T19:16:51.995Z,100002.66
2022-10-31T19:19:20.859Z,100007.06
2022-10-31T19:21:50.073Z,100011.03
2022-10-31T19:24:17.769Z,100017.88
2022-10-31T19:26:45.420Z,100009.19
2022-10-31T19:29:13.333Z,100007.78
2022-10-31T19:31:42.291Z,100014.84
2022-10-31T19:34:11.290Z,100023.78
2022-10-31T19:36:39.098Z,100021.16
2022-10-31T19:39:13.915Z,100021.19
2022-10-31T19:41:41.935Z,100022.66
2022-10-31T19:44:13.232Z,100020.41
2022-10-31T19:46:52.985Z,100011.09
2022-10-31T19:49:21.318Z,100022.53
2022-10-31T19:51:49.008Z,100025.03
2022-10-31T19:54:18.137Z,100013.88
2022-10-31T19:56:45.938Z,100006.03
2022-10-31T19:59:13.957Z,100002.72
2022-10-31T20:01:41.880Z,99997.53
2022-10-31T20:04:09.475Z,100000.22
2022-10-31T20:06:39.417Z,100010.19
2022-10-31T20:09:09.582Z,100021.59
2022-10-31T20:11:39.258Z,100017.41
2022-10-31T20:14:08.921Z,100013.66
2022-10-31T20:16:36.600Z,100020.94
2022-10-31T20:19:04.455Z,100013.66
2022-10-31T20:21:33.283Z,100019.06
2022-10-31T20:24:02.517Z,100019.06
2022-10-31T20:26:31.405Z,100026.53
2022-10-31T20:29:01.865Z,100032.97
2022-10-31T20:31:31.067Z,100032.16
2022-10-31T20:33:59.120Z,100034.63
2022-10-31T20:36:28.732Z,100036.94
2022-10-31T20:38:56.425Z,100024.28
2022-10-31T20:41:24.149Z,100022.41
2022-10-31T20:43:52.070Z,100029.47
2022-10-31T20:46:23.110Z,100024.09
2022-10-31T20:48:54.304Z,100008.16
2022-10-31T20:51:24.875Z,100019.13
2022-10-31T20:53:53.698Z,100021.00
2022-10-31T20:56:23.012Z,100016.69
2022-10-31T20:58:50.938Z,100012.56
2022-10-31T21:01:22.099Z,100002.03
2022-10-31T21:03:50.500Z,99993.78
2022-10-31T21:06:19.796Z,100002.06
2022-10-31T21:08:47.614Z,100002.88
2022-10-31T21:11:17.463Z,100008.47
2022-10-31T21:13:46.431Z,100008.94
2022-10-31T21:16:16.026Z,100014.53
2022-10-31T21:18:46.300Z,100009.13
2022-10-31T21:21:16.156Z,100009.94
2022-10-31T21:23:45.004Z,100011.81
2022-10-31T21:26:14.716Z,100002.53
2022-10-31T21:28:42.647Z,100008.53
2022-10-31T21:31:12.312Z,100004.19
2022-10-31T21:33:40.692Z,100006.28
2022-10-31T21:36:10.740Z,100009.19
2022-10-31T21:38:39.502Z,100002.38
2022-10-31T21:41:08.975Z,100015.84
2022-10-31T21:43:37.450Z,100015.06
2022-10-31T21:46:06.063Z,100004.72
2022-10-31T21:48:39.243Z,100006.00
2022-10-31T21:51:09.998Z,100016.97
2022-10-31T21:53:55.332Z,100006.59
2022-10-31T21:56:23.831Z,100014.28
2022-10-31T21:58:51.945Z,100002.88
2022-10-31T22:01:20.484Z,99999.78
2022-10-31T22:03:48.128Z,100011.16
2022-10-31T22:06:17.435Z,100000.63
2022-10-31T22:08:45.123Z,99994.78
2022-10-31T22:11:15.008Z,99989.47
2022-10-31T22:13:43.894Z,99987.16
2022-10-31T22:16:13.312Z,99983.25
2022-10-31T22:18:41.837Z,99984.91
2022-10-31T22:21:10.900Z,99986.97
2022-10-31T22:23:40.730Z,99973.53
2022-10-31T22:26:10.004Z,99975.44
2022-10-31T22:28:37.615Z,99965.50
2022-10-31T22:31:05.962Z,99977.28
2022-10-31T22:33:34.058Z,99978.13
2022-10-31T22:36:02.978Z,99975.63
2022-10-31T22:38:30.685Z,99972.53
2022-10-31T22:41:00.318Z,99967.34
2022-10-31T22:43:28.736Z,99985.56
2022-10-31T22:46:00.442Z,99996.75
2022-10-31T22:48:28.111Z,99983.91
2022-10-31T22:50:55.651Z,99984.13
2022-10-31T22:53:23.260Z,99979.75
2022-10-31T22:55:51.302Z,99984.97
2022-10-31T22:58:20.228Z,99982.47
2022-10-31T23:00:47.961Z,99972.34
2022-10-31T23:03:15.558Z,99972.13
2022-10-31T23:05:43.168Z,99973.13
2022-10-31T23:08:10.774Z,99972.53
2022-10-31T23:10:42.015Z,99968.59
2022-10-31T23:13:27.954Z,99961.97
2022-10-31T23:15:56.888Z,99960.50
2022-10-31T23:18:48.384Z,99963.81
2022-10-31T23:21:32.107Z,99958.03
2022-10-31T23:24:00.006Z,99960.09
2022-10-31T23:26:45.375Z,99963.00
2022-10-31T23:29:12.927Z,99967.53
2022-10-31T23:31:41.853Z,99967.94
2022-10-31T23:34:09.490Z,99962.97
2022-10-31T23:36:37.150Z,99973.09
2022-10-31T23:39:05.138Z,99962.53
2022-10-31T23:41:32.688Z,99967.28
2022-10-31T23:44:00.278Z,99967.69
2022-10-31T23:46:28.233Z,99974.72
2022-10-31T23:48:57.107Z,99985.69
2022-10-31T23:51:24.756Z,99980.91
2022-10-31T23:53:52.305Z,99982.16
2022-10-31T23:56:19.870Z,99969.38
2022-10-31T23:58:47.535Z,99972.66
